Time;durP1;ratioP1;P1;durP2;ratioP2;P2;SDS_P1;SDS_P2;PMS_P1;PMS_P2;Temp;Humidity;BMP_temperature;BMP_pressure;BME280_temperature;BME280_humidity;BME280_pressure;Samples;Min_cycle;Max_cycle;Signal;HPM_P1;HPM_P2
2022/09/13 00:07:18;;;;;;;1999.90;999.90;;;17.90;99.90;;;;;;6660012;88;20195;-76
2022/09/13 00:17:18;;;;;;;1999.90;999.90;;;17.80;99.90;;;;;;6673584;87;20238;-75
2022/09/13 00:27:19;;;;;;;1999.90;999.90;;;17.80;99.90;;;;;;6670084;88;20241;-74
2022/09/13 00:37:19;;;;;;;1999.90;999.90;;;17.60;99.90;;;;;;6688384;88;20188;-75
2022/09/13 00:47:38;;;;;;;1999.90;999.90;;;17.50;99.90;;;;;;6677599;88;20689;-74
2022/09/13 00:57:39;;;;;;;1999.90;999.90;;;17.30;99.90;;;;;;6667922;88;20222;-74
2022/09/13 01:07:40;;;;;;;1999.90;999.90;;;17.40;99.90;;;;;;6670072;87;20192;-74
2022/09/13 01:17:42;;;;;;;1999.90;999.90;;;17.50;99.90;;;;;;6668221;88;20232;-74
2022/09/13 01:27:48;;;;;;;1999.90;999.90;;;17.50;99.90;;;;;;6670993;88;20206;-74
2022/09/13 01:38:20;;;;;;;1999.90;999.90;;;17.40;99.90;;;;;;6669753;88;20206;-75
2022/09/13 01:48:23;;;;;;;1999.90;999.90;;;17.20;99.90;;;;;;6684682;88;20237;-75
2022/09/13 01:58:32;;;;;;;1999.90;999.90;;;17.10;99.90;;;;;;6679702;88;20624;-75
2022/09/13 02:08:49;;;;;;;1999.90;999.90;;;16.90;99.90;;;;;;6663191;88;20617;-75
2022/09/13 02:18:57;;;;;;;1999.90;999.90;;;17.10;99.90;;;;;;6658286;88;20260;-75
2022/09/13 02:29:02;;;;;;;1999.90;999.90;;;17.10;99.90;;;;;;6664404;88;20200;-77
2022/09/13 02:39:08;;;;;;;1999.90;999.90;;;16.70;99.90;;;;;;6670826;88;20213;-75
2022/09/13 02:49:23;;;;;;;1999.90;999.90;;;16.70;99.90;;;;;;6672786;88;20344;-75
2022/09/13 02:59:24;;;;;;;1999.90;999.90;;;16.80;99.90;;;;;;6666475;88;20254;-75
2022/09/13 03:09:25;;;;;;;1999.90;999.90;;;16.90;99.90;;;;;;6664791;88;20313;-76
2022/09/13 03:19:54;;;;;;;1999.90;999.90;;;16.80;99.90;;;;;;6650553;89;20353;-76
2022/09/13 03:30:06;;;;;;;1999.90;999.90;;;17.00;99.90;;;;;;6650523;88;20252;-76
2022/09/13 03:40:32;;;;;;;1999.90;999.90;;;17.00;99.90;;;;;;6648592;88;20620;-75
2022/09/13 03:50:33;;;;;;;1999.90;999.90;;;17.00;99.90;;;;;;6650676;88;20228;-76
2022/09/13 04:00:34;;;;;;;1999.90;999.90;;;17.10;99.90;;;;;;6652314;89;20667;-76
2022/09/13 04:10:36;;;;;;;1999.90;999.90;;;17.00;99.90;;;;;;6676290;88;20249;-76
2022/09/13 04:20:36;;;;;;;1999.90;999.90;;;17.10;99.90;;;;;;6668049;87;20276;-75
2022/09/13 04:30:37;;;;;;;1999.90;999.90;;;17.00;99.90;;;;;;6671871;88;20679;-75
2022/09/13 04:40:38;;;;;;;1999.90;999.90;;;17.00;99.90;;;;;;6668966;88;20274;-76
2022/09/13 04:50:38;;;;;;;1999.90;999.90;;;17.00;99.90;;;;;;6670830;88;20188;-75
2022/09/13 05:00:39;;;;;;;1999.90;999.90;;;17.20;99.90;;;;;;6670222;87;20335;-76
2022/09/13 05:10:39;;;;;;;1999.90;999.90;;;17.30;99.90;;;;;;6672273;87;20188;-74
2022/09/13 05:20:40;;;;;;;1999.90;999.90;;;17.20;99.90;;;;;;6680261;87;20328;-74
2022/09/13 05:30:40;;;;;;;1999.90;999.90;;;16.90;99.90;;;;;;6680946;88;20167;-75
2022/09/13 05:40:41;;;;;;;1999.90;999.90;;;17.00;99.90;;;;;;6673952;88;20766;-75
2022/09/13 05:50:41;;;;;;;1999.90;999.90;;;17.10;99.90;;;;;;6683133;87;20683;-75
2022/09/13 06:00:42;;;;;;;1999.90;999.90;;;17.10;99.90;;;;;;6674190;87;20708;-77
2022/09/13 06:10:43;;;;;;;1999.90;999.90;;;17.10;99.90;;;;;;6690596;87;20938;-75
2022/09/13 06:20:43;;;;;;;1999.90;999.90;;;17.20;99.90;;;;;;6673838;87;20319;-76
2022/09/13 06:30:44;;;;;;;1999.90;999.90;;;17.30;99.90;;;;;;6674280;87;20229;-76
2022/09/13 06:40:44;;;;;;;1999.90;999.90;;;17.40;99.90;;;;;;6671760;87;20719;-77
2022/09/13 06:50:45;;;;;;;1999.90;999.90;;;17.60;99.90;;;;;;6668919;89;20312;-77
2022/09/13 07:00:45;;;;;;;1999.90;999.90;;;17.80;99.90;;;;;;6667356;88;20203;-76
2022/09/13 07:10:46;;;;;;;1999.90;999.90;;;18.10;99.90;;;;;;6667727;87;20200;-76
2022/09/13 07:20:46;;;;;;;1999.90;999.90;;;18.20;99.90;;;;;;6675612;88;20204;-77
2022/09/13 07:30:47;;;;;;;1999.90;999.90;;;18.40;99.90;;;;;;6666104;88;20239;-76
2022/09/13 07:40:58;;;;;;;1999.90;999.90;;;18.80;99.90;;;;;;6669356;88;20297;-76
2022/09/13 07:51:00;;;;;;;1999.90;999.90;;;19.10;99.90;;;;;;6667375;88;20658;-77
2022/09/13 08:01:22;;;;;;;1999.90;999.90;;;19.50;99.90;;;;;;6670204;88;20215;-76
2022/09/13 08:11:38;;;;;;;1999.90;999.90;;;19.70;99.90;;;;;;6674188;87;23078;-77
2022/09/13 08:21:40;;;;;;;1999.90;999.90;;;20.20;99.90;;;;;;6666787;88;20262;-76
2022/09/13 08:31:41;;;;;;;1999.90;999.90;;;20.50;99.90;;;;;;6667686;88;20200;-76
2022/09/13 08:41:51;;;;;;;1999.90;999.90;;;20.80;99.90;;;;;;6672991;88;20183;-77
2022/09/13 08:52:02;;;;;;;1999.90;999.90;;;21.30;99.90;;;;;;6667426;88;20182;-76
2022/09/13 09:02:19;;;;;;;1999.90;999.90;;;22.40;99.90;;;;;;6670305;88;20195;-77
2022/09/13 09:12:32;;;;;;;1999.90;999.90;;;22.00;99.90;;;;;;6666582;88;20634;-77
2022/09/13 09:22:35;;;;;;;1999.90;999.90;;;22.80;99.90;;;;;;6679114;88;20194;-78
2022/09/13 09:33:00;;;;;;;1999.90;999.90;;;23.20;99.90;;;;;;6668415;87;20199;-77
2022/09/13 09:43:10;;;;;;;1999.90;999.90;;;24.80;99.90;;;;;;6670858;88;20232;-78
2022/09/13 09:53:15;;;;;;;1999.90;999.90;;;25.40;99.90;;;;;;6678443;88;20191;-75
2022/09/13 10:03:18;;;;;;;1999.90;999.90;;;26.30;99.90;;;;;;6673475;88;20190;-76
2022/09/13 10:13:21;;;;;;;1999.90;999.90;;;27.40;99.70;;;;;;6668443;88;20200;-75
2022/09/13 10:23:21;;;;;;;1999.90;999.90;;;27.80;99.50;;;;;;6665470;88;20214;-75
2022/09/13 10:33:24;;;;;;;1999.90;999.90;;;27.20;99.70;;;;;;6666961;87;21049;-75
2022/09/13 10:43:28;;;;;;;1999.90;999.90;;;26.70;99.70;;;;;;6674440;87;20194;-76
2022/09/13 10:53:37;;;;;;;1999.90;999.90;;;26.40;99.90;;;;;;6669586;88;20222;-75
2022/09/13 11:04:02;;;;;;;1999.90;999.90;;;26.70;99.90;;;;;;6675884;88;20234;-76
2022/09/13 11:14:36;;;;;;;1999.90;999.90;;;27.40;99.60;;;;;;6682690;87;20183;-76
2022/09/13 11:24:53;;;;;;;1999.90;999.90;;;26.60;99.90;;;;;;6670299;87;20257;-76
2022/09/13 11:35:35;;;;;;;1999.90;999.90;;;27.50;99.90;;;;;;6678049;88;20187;-75
2022/09/13 11:46:16;;;;;;;1999.90;999.90;;;29.70;98.10;;;;;;6670364;88;20203;-76
2022/09/13 11:56:25;;;;;;;1999.90;999.90;;;29.80;96.70;;;;;;6674910;88;20273;-76
2022/09/13 12:06:39;;;;;;;1999.90;999.90;;;29.50;97.10;;;;;;6669251;87;20210;-77
2022/09/13 12:16:44;;;;;;;1999.90;999.90;;;29.10;97.00;;;;;;6653224;88;20406;-77
2022/09/13 12:27:18;;;;;;;1999.90;999.90;;;28.20;97.50;;;;;;6651893;88;21182;-77
2022/09/13 12:37:48;;;;;;;1999.90;999.90;;;28.20;97.70;;;;;;6651490;88;20184;-78
2022/09/13 12:48:17;;;;;;;1999.90;999.90;;;28.40;97.90;;;;;;6655114;89;20208;-77
2022/09/13 12:58:17;;;;;;;1999.90;999.90;;;27.80;98.00;;;;;;6659271;88;20272;-77
2022/09/13 13:08:20;;;;;;;1999.90;999.90;;;27.80;98.00;;;;;;6668161;88;20248;-77
2022/09/13 13:18:42;;;;;;;1999.90;999.90;;;28.90;97.60;;;;;;6672026;89;20204;-77
2022/09/13 13:28:46;;;;;;;1999.90;999.90;;;28.60;96.90;;;;;;6667658;89;20190;-77
2022/09/13 13:38:48;;;;;;;1999.90;999.90;;;28.30;97.00;;;;;;6669296;89;20249;-77
2022/09/13 13:48:49;;;;;;;1999.90;999.90;;;28.20;97.50;;;;;;6669941;88;20228;-77
2022/09/13 13:59:05;;;;;;;1999.90;999.90;;;28.20;97.70;;;;;;6668739;88;20640;-77
2022/09/13 14:09:25;;;;;;;1999.90;999.90;;;28.00;97.40;;;;;;6668215;88;20351;-78
2022/09/13 14:19:37;;;;;;;1999.90;999.90;;;28.10;97.50;;;;;;6694043;88;20238;-77
2022/09/13 14:29:38;;;;;;;1999.90;999.90;;;28.70;97.00;;;;;;6678343;88;20215;-77
2022/09/13 14:39:59;;;;;;;1999.90;999.90;;;28.10;97.50;;;;;;6671370;88;20261;-77
2022/09/13 14:50:25;;;;;;;1999.90;999.90;;;27.10;99.00;;;;;;6669853;88;20704;-76
2022/09/13 15:00:26;;;;;;;1999.90;999.90;;;27.00;99.30;;;;;;6677728;88;20209;-77
2022/09/13 15:10:32;;;;;;;1999.90;999.90;;;26.60;99.80;;;;;;6686241;88;20210;-76
2022/09/13 15:21:02;;;;;;;1999.90;999.90;;;26.10;99.90;;;;;;6681047;88;20183;-76
2022/09/13 15:31:03;;;;;;;1999.90;999.90;;;26.10;99.90;;;;;;6685621;88;20265;-76
2022/09/13 15:41:10;;;;;;;1999.90;999.90;;;25.60;99.90;;;;;;6691291;88;20190;-75
2022/09/13 15:51:13;;;;;;;1999.90;999.90;;;25.30;99.90;;;;;;6682195;88;20195;-76
2022/09/13 16:01:15;;;;;;;1999.90;999.90;;;24.80;99.90;;;;;;6675532;88;20221;-77
2022/09/13 16:11:15;;;;;;;1999.90;999.90;;;24.40;99.90;;;;;;6675090;88;20199;-77
2022/09/13 16:21:16;;;;;;;1999.90;999.90;;;24.30;99.90;;;;;;6672090;88;20195;-77
2022/09/13 16:31:18;;;;;;;1999.90;999.90;;;23.80;99.90;;;;;;6671592;88;20213;-75
2022/09/13 16:41:19;;;;;;;1999.90;999.90;;;22.80;99.90;;;;;;6678786;88;20242;-75
2022/09/13 16:51:21;;;;;;;1999.90;999.90;;;21.90;99.90;;;;;;6679795;87;20228;-74
2022/09/13 17:01:27;;;;;;;1999.90;999.90;;;21.30;99.90;;;;;;6671175;88;20335;-75
2022/09/13 17:11:33;;;;;;;1999.90;999.90;;;20.90;99.90;;;;;;6661129;88;20251;-74
2022/09/13 17:21:33;;;;;;;1999.90;999.90;;;20.50;99.90;;;;;;6667083;88;20262;-75
2022/09/13 17:31:34;;;;;;;1999.90;999.90;;;20.50;99.90;;;;;;6665244;88;20877;-75
2022/09/13 17:41:35;;;;;;;1999.90;999.90;;;20.30;99.90;;;;;;6660442;88;21418;-74
2022/09/13 17:51:35;;;;;;;1999.90;999.90;;;20.20;99.90;;;;;;6659566;88;20407;-76
2022/09/13 18:01:42;;;;;;;1999.90;999.90;;;20.00;99.90;;;;;;6656934;88;20599;-74
2022/09/13 18:11:43;;;;;;;1999.90;999.90;;;20.00;99.90;;;;;;6674847;87;20254;-74
2022/09/13 18:21:43;;;;;;;1999.90;999.90;;;20.10;99.90;;;;;;6672505;87;20214;-74
2022/09/13 18:31:44;;;;;;;1999.90;999.90;;;20.10;99.90;;;;;;6671622;87;20216;-74
2022/09/13 18:41:47;;;;;;;1999.90;999.90;;;20.20;99.90;;;;;;6682937;87;20766;-75
2022/09/13 18:51:48;;;;;;;1999.90;999.90;;;20.10;99.90;;;;;;6671897;87;20206;-74
2022/09/13 19:01:49;;;;;;;1999.90;999.90;;;19.90;99.90;;;;;;6671635;88;20259;-74
2022/09/13 19:11:52;;;;;;;1999.90;999.90;;;19.80;99.90;;;;;;6670328;87;20731;-74
2022/09/13 19:21:52;;;;;;;1999.90;999.90;;;19.80;99.90;;;;;;6675096;87;20226;-74
2022/09/13 19:31:54;;;;;;;1999.90;999.90;;;19.70;99.90;;;;;;6676005;87;20212;-75
2022/09/13 19:41:55;;;;;;;1999.90;999.90;;;19.50;99.90;;;;;;6673501;87;20199;-74
2022/09/13 19:51:56;;;;;;;1999.90;999.90;;;19.70;99.90;;;;;;6672015;87;20190;-74
2022/09/13 20:01:56;;;;;;;1999.90;999.90;;;19.80;99.90;;;;;;6680008;87;20202;-75
2022/09/13 20:11:59;;;;;;;1999.90;999.90;;;19.60;99.90;;;;;;6667723;87;20236;-75
2022/09/13 20:22:00;;;;;;;1999.90;999.90;;;19.40;99.90;;;;;;6673350;88;20379;-76
2022/09/13 20:32:01;;;;;;;1999.90;999.90;;;19.50;99.90;;;;;;6674244;88;20662;-75
2022/09/13 20:42:01;;;;;;;1999.90;999.90;;;19.40;99.90;;;;;;6673217;88;20213;-76
2022/09/13 20:52:02;;;;;;;1999.90;999.90;;;19.40;99.90;;;;;;6676580;88;20244;-76
2022/09/13 21:02:03;;;;;;;1999.90;999.90;;;19.40;99.90;;;;;;6674539;89;20575;-76
2022/09/13 21:12:05;;;;;;;1999.90;999.90;;;19.30;99.90;;;;;;6675429;87;20225;-77
2022/09/13 21:22:06;;;;;;;1999.90;999.90;;;19.40;99.90;;;;;;6672911;87;20615;-76
2022/09/13 21:32:07;;;;;;;1999.90;999.90;;;19.40;99.90;;;;;;6674959;87;20180;-76
2022/09/13 21:42:08;;;;;;;1999.90;999.90;;;19.50;99.90;;;;;;6681799;87;20253;-76
2022/09/13 21:52:08;;;;;;;1999.90;999.90;;;19.50;99.90;;;;;;6678215;87;20256;-77
2022/09/13 22:02:10;;;;;;;1999.90;999.90;;;19.40;99.90;;;;;;6672666;87;20533;-77
2022/09/13 22:12:11;;;;;;;1999.90;999.90;;;19.30;99.90;;;;;;6677965;87;20739;-76
2022/09/13 22:22:11;;;;;;;1999.90;999.90;;;19.30;99.90;;;;;;6674320;87;20337;-77
2022/09/13 22:32:11;;;;;;;1999.90;999.90;;;19.20;99.90;;;;;;6670645;87;20321;-76
2022/09/13 22:42:12;;;;;;;1999.90;999.90;;;19.20;99.90;;;;;;6672943;87;20188;-76
2022/09/13 22:52:13;;;;;;;1999.90;999.90;;;19.30;99.90;;;;;;6678258;87;20715;-75
2022/09/13 23:02:13;;;;;;;1999.90;999.90;;;19.30;99.90;;;;;;6678700;87;20683;-76
2022/09/13 23:12:14;;;;;;;1999.90;999.90;;;19.30;99.90;;;;;;6679512;87;20247;-75
2022/09/13 23:22:14;;;;;;;1999.90;999.90;;;19.30;99.90;;;;;;6701293;87;20202;-76
2022/09/13 23:32:15;;;;;;;1999.90;999.90;;;19.20;99.90;;;;;;6671686;87;20179;-76
2022/09/13 23:42:16;;;;;;;1999.90;999.90;;;19.00;99.90;;;;;;6672893;88;20615;-77
2022/09/13 23:52:17;;;;;;;1999.90;999.90;;;18.90;99.90;;;;;;6685097;87;21146;-75
